createdAt,value
2023-02-11T00:00:41.091Z,2.35
2023-02-11T00:02:48.029Z,2.34
2023-02-11T00:04:50.953Z,2.32
2023-02-11T00:06:57.688Z,2.32
2023-02-11T00:09:01.334Z,2.31
2023-02-11T00:11:07.062Z,2.30
2023-02-11T00:13:09.696Z,2.29
2023-02-11T00:15:12.398Z,2.29
2023-02-11T00:17:15.588Z,2.29
2023-02-11T00:19:18.321Z,2.30
2023-02-11T00:21:25.880Z,2.29
2023-02-11T00:23:28.587Z,2.30
2023-02-11T00:25:34.195Z,2.30
2023-02-11T00:27:37.751Z,2.29
2023-02-11T00:29:40.898Z,2.28
2023-02-11T00:31:47.917Z,2.28
2023-02-11T00:33:50.766Z,2.29
2023-02-11T00:35:54.948Z,2.28
2023-02-11T00:37:58.998Z,2.28
2023-02-11T00:40:03.831Z,2.28
2023-02-11T00:42:10.967Z,2.29
2023-02-11T00:44:13.763Z,2.30
2023-02-11T00:46:19.818Z,2.32
2023-02-11T00:48:22.640Z,2.34
2023-02-11T00:50:28.124Z,2.37
2023-02-11T00:52:32.437Z,2.39
2023-02-11T00:54:35.208Z,2.41
2023-02-11T00:56:44.073Z,2.41
2023-02-11T00:58:50.142Z,2.41
2023-02-11T01:00:53.692Z,2.42
2023-02-11T01:02:56.573Z,2.43
2023-02-11T01:05:00.135Z,2.45
2023-02-11T01:07:03.034Z,2.48
2023-02-11T01:09:06.262Z,2.50
2023-02-11T01:11:15.722Z,2.54
2023-02-11T01:13:20.838Z,2.56
2023-02-11T01:15:23.776Z,2.57
2023-02-11T01:17:29.205Z,2.59
2023-02-11T01:19:31.938Z,2.62
2023-02-11T01:21:34.888Z,2.65
2023-02-11T01:23:37.804Z,2.67
2023-02-11T01:25:46.780Z,2.68
2023-02-11T01:27:49.496Z,2.67
2023-02-11T01:29:55.804Z,2.66
2023-02-11T01:32:00.111Z,2.65
2023-02-11T01:34:06.044Z,2.61
2023-02-11T01:36:10.645Z,2.61
2023-02-11T01:38:21.550Z,2.60
2023-02-11T01:40:24.844Z,2.61
2023-02-11T01:42:27.599Z,2.62
2023-02-11T01:44:32.347Z,2.62
2023-02-11T01:46:37.529Z,2.64
2023-02-11T01:48:43.669Z,2.66
2023-02-11T01:50:50.346Z,2.69
2023-02-11T01:52:53.685Z,2.69
2023-02-11T01:55:00.032Z,2.68
2023-02-11T01:57:05.962Z,2.70
2023-02-11T01:59:23.537Z,2.71
2023-02-11T02:01:28.528Z,2.72
2023-02-11T02:03:40.082Z,2.74
2023-02-11T02:05:52.645Z,2.73
2023-02-11T02:08:10.981Z,2.71
2023-02-11T02:10:22.186Z,2.68
2023-02-11T02:12:25.031Z,2.67
2023-02-11T02:14:28.554Z,2.63
2023-02-11T02:16:35.748Z,2.60
2023-02-11T02:18:50.323Z,2.59
2023-02-11T02:21:35.142Z,2.59
2023-02-11T02:24:13.869Z,2.58
2023-02-11T02:26:53.771Z,2.54
2023-02-11T02:29:42.334Z,2.54
2023-02-11T02:32:01.584Z,2.52
2023-02-11T02:34:09.078Z,2.49
2023-02-11T02:36:18.927Z,2.47
2023-02-11T02:38:27.964Z,2.44
2023-02-11T02:40:34.556Z,2.44
2023-02-11T02:42:39.536Z,2.43
2023-02-11T02:44:48.653Z,2.44
2023-02-11T02:46:53.048Z,2.45
2023-02-11T02:48:59.709Z,2.45
2023-02-11T02:51:10.745Z,2.46
2023-02-11T02:53:26.569Z,2.46
2023-02-11T02:55:46.281Z,2.45
2023-02-11T02:58:26.435Z,2.46
2023-02-11T03:00:37.665Z,2.45
2023-02-11T03:02:48.693Z,2.45
2023-02-11T03:05:01.849Z,2.47
2023-02-11T03:07:16.004Z,2.46
2023-02-11T03:09:24.814Z,2.44
2023-02-11T03:11:40.563Z,2.42
2023-02-11T03:13:48.359Z,2.42
2023-02-11T03:15:55.056Z,2.41
2023-02-11T03:18:01.300Z,2.39
2023-02-11T03:20:06.260Z,2.38
2023-02-11T03:22:19.522Z,2.38
2023-02-11T03:24:30.274Z,2.35
2023-02-11T03:26:39.856Z,2.33
2023-02-11T03:28:48.890Z,2.32
2023-02-11T03:30:59.066Z,2.32
2023-02-11T03:33:11.796Z,2.30
2023-02-11T03:35:20.320Z,2.29
2023-02-11T03:37:28.198Z,2.28
2023-02-11T03:39:39.394Z,2.29
2023-02-11T03:41:48.444Z,2.31
2023-02-11T03:43:57.686Z,2.32
2023-02-11T03:46:01.777Z,2.34
2023-02-11T03:48:08.238Z,2.36
2023-02-11T03:50:12.439Z,2.39
2023-02-11T03:52:17.539Z,2.43
2023-02-11T03:54:26.811Z,2.45
2023-02-11T03:56:35.939Z,2.49
2023-02-11T03:58:38.789Z,2.52
2023-02-11T04:00:43.544Z,2.54
2023-02-11T04:02:49.338Z,2.57
2023-02-11T04:04:55.222Z,2.60
2023-02-11T04:06:57.871Z,2.63
2023-02-11T04:09:00.918Z,2.66
2023-02-11T04:11:03.571Z,2.69
2023-02-11T04:13:06.384Z,2.73
2023-02-11T04:15:09.810Z,2.75
2023-02-11T04:17:13.803Z,2.77
2023-02-11T04:19:16.444Z,2.80
2023-02-11T04:21:19.342Z,2.82
2023-02-11T04:23:22.030Z,2.84
2023-02-11T04:25:24.753Z,2.86
2023-02-11T04:27:27.511Z,2.88
2023-02-11T04:29:30.939Z,2.90
2023-02-11T04:31:33.859Z,2.93
2023-02-11T04:33:39.427Z,2.96
2023-02-11T04:35:45.247Z,2.97
2023-02-11T04:37:50.229Z,2.96
2023-02-11T04:39:52.846Z,2.96
2023-02-11T04:41:55.742Z,2.97
2023-02-11T04:43:58.447Z,2.97
2023-02-11T04:46:01.187Z,2.99
2023-02-11T04:48:05.558Z,2.99
2023-02-11T04:50:11.355Z,2.98
2023-02-11T04:52:13.949Z,3.02
2023-02-11T04:54:17.275Z,3.03
2023-02-11T04:56:25.677Z,3.05
2023-02-11T04:58:29.444Z,3.06
2023-02-11T05:00:32.111Z,3.08
2023-02-11T05:02:38.158Z,3.10
2023-02-11T05:04:40.861Z,3.11
2023-02-11T05:06:43.831Z,3.12
2023-02-11T05:08:49.837Z,3.13
2023-02-11T05:10:52.555Z,3.17
2023-02-11T05:12:56.467Z,3.18
2023-02-11T05:14:59.127Z,3.21
2023-02-11T05:17:01.926Z,3.23
2023-02-11T05:19:05.243Z,3.26
2023-02-11T05:21:10.037Z,3.28
2023-02-11T05:23:12.859Z,3.29
2023-02-11T05:25:21.751Z,3.30
2023-02-11T05:27:24.877Z,3.33
2023-02-11T05:29:28.082Z,3.34
2023-02-11T05:31:30.799Z,3.38
2023-02-11T05:33:33.744Z,3.39
2023-02-11T05:35:36.839Z,3.41
2023-02-11T05:37:39.982Z,3.42
2023-02-11T05:39:43.209Z,3.42
2023-02-11T05:41:48.972Z,3.43
2023-02-11T05:43:54.232Z,3.44
2023-02-11T05:46:00.164Z,3.44
2023-02-11T05:48:04.195Z,3.44
2023-02-11T05:50:10.702Z,3.44
2023-02-11T05:52:13.487Z,3.43
2023-02-11T05:54:18.948Z,3.43
2023-02-11T05:56:24.810Z,3.43
2023-02-11T05:58:31.732Z,3.44
2023-02-11T06:00:35.129Z,3.46
2023-02-11T06:02:45.185Z,3.48
2023-02-11T06:04:54.072Z,3.48
2023-02-11T06:06:56.834Z,3.51
2023-02-11T06:09:01.258Z,3.53
2023-02-11T06:11:04.629Z,3.55
2023-02-11T06:13:07.514Z,3.58
2023-02-11T06:15:12.131Z,3.58
2023-02-11T06:17:18.117Z,3.58
2023-02-11T06:19:20.904Z,3.58
2023-02-11T06:21:26.481Z,3.58
2023-02-11T06:23:34.700Z,3.58
2023-02-11T06:25:37.910Z,3.60
2023-02-11T06:27:40.831Z,3.59
2023-02-11T06:29:45.230Z,3.61
2023-02-11T06:31:48.054Z,3.62
2023-02-11T06:33:50.852Z,3.65
2023-02-11T06:35:53.548Z,3.66
2023-02-11T06:37:59.222Z,3.68
2023-02-11T06:40:02.456Z,3.70
2023-02-11T06:42:08.015Z,3.72
2023-02-11T06:44:13.355Z,3.75
2023-02-11T06:46:20.572Z,3.77
2023-02-11T06:48:23.602Z,3.80
2023-02-11T06:50:26.473Z,3.84
2023-02-11T06:52:32.219Z,3.87
2023-02-11T06:54:36.698Z,3.91
2023-02-11T06:56:43.934Z,3.96
2023-02-11T06:58:53.798Z,4.01
2023-02-11T07:00:56.772Z,4.06
2023-02-11T07:02:59.652Z,4.12
2023-02-11T07:05:05.306Z,4.18
2023-02-11T07:07:09.215Z,4.24
2023-02-11T07:09:15.881Z,4.29
2023-02-11T07:11:23.016Z,4.32
2023-02-11T07:13:27.168Z,4.36
2023-02-11T07:15:32.596Z,4.39
2023-02-11T07:17:36.137Z,4.44
2023-02-11T07:19:38.927Z,4.48
2023-02-11T07:21:47.426Z,4.54
2023-02-11T07:23:50.467Z,4.60
2023-02-11T07:25:53.082Z,4.67
2023-02-11T07:27:56.409Z,4.75
2023-02-11T07:29:59.243Z,4.82
2023-02-11T07:32:03.215Z,4.92
2023-02-11T07:34:05.992Z,5.00
2023-02-11T07:36:11.942Z,5.10
2023-02-11T07:38:14.708Z,5.19
2023-02-11T07:40:17.884Z,5.29
2023-02-11T07:42:20.619Z,5.39
2023-02-11T07:44:26.360Z,5.48
2023-02-11T07:46:29.226Z,5.55
2023-02-11T07:48:32.288Z,5.63
2023-02-11T07:50:34.957Z,5.71
2023-02-11T07:52:37.956Z,5.77
2023-02-11T07:54:41.160Z,5.82
2023-02-11T07:56:43.926Z,5.88
2023-02-11T07:58:46.998Z,5.91
2023-02-11T08:00:49.783Z,5.96
2023-02-11T08:02:53.792Z,5.99
2023-02-11T08:04:56.462Z,6.01
2023-02-11T08:06:59.392Z,6.04
2023-02-11T08:09:07.361Z,6.07
2023-02-11T08:11:12.774Z,6.10
2023-02-11T08:13:18.508Z,6.11
2023-02-11T08:15:21.241Z,6.12
2023-02-11T08:17:26.866Z,6.12
2023-02-11T08:19:29.637Z,6.13
2023-02-11T08:21:33.544Z,6.14
2023-02-11T08:23:40.514Z,6.17
2023-02-11T08:25:44.724Z,6.20
2023-02-11T08:27:47.989Z,6.22
2023-02-11T08:29:51.087Z,6.22
2023-02-11T08:31:54.008Z,6.24
2023-02-11T08:33:56.696Z,6.27
2023-02-11T08:35:59.892Z,6.28
2023-02-11T08:38:03.895Z,6.27
2023-02-11T08:40:11.457Z,6.26
2023-02-11T08:42:14.430Z,6.24
2023-02-11T08:44:17.302Z,6.24
2023-02-11T08:46:20.919Z,6.26
2023-02-11T08:48:23.806Z,6.26
2023-02-11T08:50:28.831Z,6.26
2023-02-11T08:52:31.936Z,6.27
2023-02-11T08:54:34.671Z,6.32
2023-02-11T08:56:38.150Z,6.36
2023-02-11T08:58:41.294Z,6.38
2023-02-11T09:00:44.121Z,6.42
2023-02-11T09:02:49.875Z,6.47
2023-02-11T09:04:52.564Z,6.52
2023-02-11T09:06:58.058Z,6.54
2023-02-11T09:09:01.216Z,6.58
2023-02-11T09:11:07.553Z,6.63
2023-02-11T09:13:10.722Z,6.69
2023-02-11T09:15:16.736Z,6.77
2023-02-11T09:17:22.617Z,6.83
2023-02-11T09:19:25.314Z,6.88
2023-02-11T09:21:28.789Z,6.91
2023-02-11T09:23:31.587Z,6.93
2023-02-11T09:25:34.284Z,6.94
2023-02-11T09:27:37.082Z,6.97
2023-02-11T09:29:39.781Z,7.01
2023-02-11T09:31:42.582Z,7.07
2023-02-11T09:33:48.450Z,7.14
2023-02-11T09:35:54.528Z,7.14
2023-02-11T09:38:01.328Z,7.18
2023-02-11T09:40:05.220Z,7.23
2023-02-11T09:42:44.984Z,7.27
2023-02-11T09:44:50.803Z,7.32
2023-02-11T09:46:57.961Z,7.35
2023-02-11T09:49:01.511Z,7.37
2023-02-11T09:51:05.600Z,7.36
2023-02-11T09:53:17.166Z,7.34
2023-02-11T09:55:24.540Z,7.30
2023-02-11T09:57:31.739Z,7.30
2023-02-11T09:59:39.257Z,7.28
2023-02-11T10:01:50.410Z,7.30
2023-02-11T10:04:01.105Z,7.36
2023-02-11T10:06:15.260Z,7.38
2023-02-11T10:08:26.281Z,7.42
2023-02-11T10:10:47.876Z,7.47
2023-02-11T10:13:11.473Z,7.49
2023-02-11T10:15:21.545Z,7.53
2023-02-11T10:17:36.036Z,7.57
2023-02-11T10:19:52.738Z,7.62
2023-02-11T10:22:06.231Z,7.65
2023-02-11T10:24:13.509Z,7.69
2023-02-11T10:26:18.092Z,7.72
2023-02-11T10:28:23.035Z,7.79
2023-02-11T10:30:31.556Z,7.85
2023-02-11T10:32:42.852Z,7.90
2023-02-11T10:34:45.990Z,7.93
2023-02-11T10:36:54.909Z,7.97
2023-02-11T10:38:59.377Z,7.99
2023-02-11T10:41:02.147Z,8.02
2023-02-11T10:43:11.022Z,8.08
2023-02-11T10:45:31.689Z,8.13
2023-02-11T10:47:37.725Z,8.19
2023-02-11T10:49:47.155Z,8.27
2023-02-11T10:51:51.090Z,8.31
2023-02-11T10:54:16.998Z,8.36
2023-02-11T10:56:26.808Z,8.39
2023-02-11T10:58:39.756Z,8.42
2023-02-11T11:00:50.479Z,8.42
2023-02-11T11:03:00.483Z,8.40
2023-02-11T11:05:07.080Z,8.37
2023-02-11T11:07:20.950Z,8.36
2023-02-11T11:09:29.069Z,8.37
2023-02-11T11:11:52.347Z,8.38
2023-02-11T11:13:57.108Z,8.43
2023-02-11T11:16:19.761Z,8.47
2023-02-11T11:18:25.298Z,8.52
2023-02-11T11:20:29.841Z,8.50
2023-02-11T11:22:32.862Z,8.51
2023-02-11T11:24:45.560Z,8.53
2023-02-11T11:26:53.178Z,8.54
2023-02-11T11:29:06.040Z,8.57
2023-02-11T11:31:16.916Z,8.60
2023-02-11T11:33:22.397Z,8.66
2023-02-11T11:35:27.384Z,8.73
2023-02-11T11:37:32.931Z,8.77
2023-02-11T11:39:36.121Z,8.78
2023-02-11T11:41:49.899Z,8.80
2023-02-11T11:44:00.257Z,8.80
2023-02-11T11:46:09.227Z,8.78
2023-02-11T11:48:21.919Z,8.78
2023-02-11T11:50:31.463Z,8.78
2023-02-11T11:52:43.121Z,8.73
2023-02-11T11:54:53.756Z,8.72
2023-02-11T11:57:01.063Z,8.71
2023-02-11T11:59:12.119Z,8.68
2023-02-11T12:01:28.047Z,8.66
2023-02-11T12:04:12.752Z,8.66
2023-02-11T12:06:38.701Z,8.66
2023-02-11T12:08:48.856Z,8.67
2023-02-11T12:11:07.863Z,8.67
2023-02-11T12:13:20.992Z,8.66
2023-02-11T12:15:34.653Z,8.66
2023-02-11T12:17:58.341Z,8.63
2023-02-11T12:20:25.070Z,8.64
2023-02-11T12:22:41.269Z,8.67
2023-02-11T12:25:09.088Z,8.68
2023-02-11T12:27:22.235Z,8.68
2023-02-11T12:29:35.523Z,8.68
2023-02-11T12:31:56.634Z,8.67
2023-02-11T12:34:30.541Z,8.66
2023-02-11T12:36:47.457Z,8.61
2023-02-11T12:39:07.258Z,8.59
2023-02-11T12:41:43.765Z,8.54
2023-02-11T12:43:46.504Z,8.47
2023-02-11T12:46:01.580Z,8.44
2023-02-11T12:48:24.105Z,8.43
2023-02-11T12:50:41.956Z,8.43
2023-02-11T12:53:08.410Z,8.44
2023-02-11T12:55:21.821Z,8.44
2023-02-11T12:57:27.494Z,8.45
2023-02-11T12:59:43.772Z,8.46
2023-02-11T13:01:51.488Z,8.45
2023-02-11T13:03:59.473Z,8.44
2023-02-11T13:06:06.698Z,8.44
2023-02-11T13:08:15.322Z,8.44
2023-02-11T13:10:27.843Z,8.41
2023-02-11T13:12:34.612Z,8.41
2023-02-11T13:14:40.565Z,8.43
2023-02-11T13:16:46.310Z,8.45
2023-02-11T13:18:56.236Z,8.45
2023-02-11T13:21:19.883Z,8.44
2023-02-11T13:23:31.638Z,8.42
2023-02-11T13:25:40.409Z,8.42
2023-02-11T13:27:55.386Z,8.42
2023-02-11T13:30:23.070Z,8.44
2023-02-11T13:32:51.748Z,8.46
2023-02-11T13:34:57.135Z,8.47
2023-02-11T13:37:00.381Z,8.45
2023-02-11T13:39:18.622Z,8.40
2023-02-11T13:41:30.367Z,8.36
2023-02-11T13:43:35.823Z,8.35
2023-02-11T13:45:44.508Z,8.31
2023-02-11T13:47:49.327Z,8.28
2023-02-11T13:49:54.375Z,8.25
2023-02-11T13:51:59.562Z,8.24
2023-02-11T13:54:16.854Z,8.22
2023-02-11T13:56:30.395Z,8.20
2023-02-11T13:58:46.703Z,8.21
2023-02-11T14:00:56.327Z,8.18
2023-02-11T14:03:31.058Z,8.16
2023-02-11T14:05:35.482Z,8.11
2023-02-11T14:08:09.753Z,8.10
2023-02-11T14:10:52.152Z,8.09
2023-02-11T14:13:23.295Z,8.03
2023-02-11T14:15:37.855Z,8.00
2023-02-11T14:17:41.690Z,7.98
2023-02-11T14:19:50.148Z,7.98
2023-02-11T14:22:01.993Z,8.00
2023-02-11T14:24:49.845Z,8.03
2023-02-11T14:27:01.993Z,8.03
2023-02-11T14:29:15.482Z,7.99
2023-02-11T14:31:24.553Z,7.95
2023-02-11T14:33:55.466Z,7.90
2023-02-11T14:36:07.908Z,7.89
2023-02-11T14:38:26.571Z,7.89
2023-02-11T14:40:32.581Z,7.89
2023-02-11T14:42:37.523Z,7.87
2023-02-11T14:44:43.417Z,7.84
2023-02-11T14:46:49.315Z,7.81
2023-02-11T14:48:58.044Z,7.78
2023-02-11T14:51:06.290Z,7.77
2023-02-11T14:53:15.666Z,7.74
2023-02-11T14:55:30.256Z,7.73
2023-02-11T14:57:33.463Z,7.72
2023-02-11T14:59:39.027Z,7.70
2023-02-11T15:01:45.066Z,7.68
2023-02-11T15:03:50.375Z,7.65
2023-02-11T15:05:59.413Z,7.63
2023-02-11T15:08:14.825Z,7.63
2023-02-11T15:10:29.941Z,7.64
2023-02-11T15:12:35.122Z,7.61
2023-02-11T15:14:45.387Z,7.59
2023-02-11T15:16:50.113Z,7.52
2023-02-11T15:19:00.677Z,7.49
2023-02-11T15:21:06.094Z,7.45
2023-02-11T15:23:19.556Z,7.43
2023-02-11T15:25:25.640Z,7.43
2023-02-11T15:27:39.745Z,7.41
2023-02-11T15:29:45.290Z,7.39
2023-02-11T15:32:13.729Z,7.36
2023-02-11T15:34:20.773Z,7.31
2023-02-11T15:36:29.344Z,7.29
2023-02-11T15:38:36.179Z,7.26
2023-02-11T15:40:50.949Z,7.25
2023-02-11T15:42:59.490Z,7.25
2023-02-11T15:45:21.530Z,7.23
2023-02-11T15:47:30.572Z,7.22
2023-02-11T15:49:44.048Z,7.21
2023-02-11T15:51:50.231Z,7.18
2023-02-11T15:54:00.947Z,7.18
2023-02-11T15:56:19.508Z,7.16
2023-02-11T15:58:28.204Z,7.13
2023-02-11T16:00:46.329Z,7.13
2023-02-11T16:02:55.474Z,7.10
2023-02-11T16:05:02.894Z,7.07
2023-02-11T16:07:26.959Z,7.06
2023-02-11T16:09:37.536Z,7.06
2023-02-11T16:11:57.826Z,7.07
2023-02-11T16:14:20.388Z,7.07
2023-02-11T16:16:29.309Z,7.06
2023-02-11T16:18:39.234Z,7.06
2023-02-11T16:20:49.305Z,7.06
2023-02-11T16:22:57.470Z,7.06
2023-02-11T16:25:04.838Z,7.06
2023-02-11T16:27:22.593Z,7.07
2023-02-11T16:29:30.628Z,7.06
2023-02-11T16:31:36.883Z,7.05
2023-02-11T16:33:45.652Z,7.06
2023-02-11T16:35:54.456Z,7.05
2023-02-11T16:38:05.715Z,7.07
2023-02-11T16:40:12.543Z,7.05
2023-02-11T16:42:25.125Z,7.04
2023-02-11T16:44:32.620Z,7.03
2023-02-11T16:46:38.805Z,7.01
2023-02-11T16:48:43.068Z,6.99
2023-02-11T16:50:51.522Z,6.95
2023-02-11T16:52:59.238Z,6.93
2023-02-11T16:55:06.208Z,6.90
2023-02-11T16:57:13.251Z,6.89
2023-02-11T16:59:23.453Z,6.86
2023-02-11T17:01:28.228Z,6.85
2023-02-11T17:03:34.039Z,6.82
2023-02-11T17:05:55.028Z,6.80
2023-02-11T17:08:02.254Z,6.78
2023-02-11T17:10:18.185Z,6.76
2023-02-11T17:12:22.595Z,6.75
2023-02-11T17:14:30.141Z,6.74
2023-02-11T17:16:35.328Z,6.73
2023-02-11T17:18:46.006Z,6.70
2023-02-11T17:20:54.666Z,6.69
2023-02-11T17:23:01.375Z,6.66
2023-02-11T17:25:13.504Z,6.66
2023-02-11T17:27:23.265Z,6.66
2023-02-11T17:29:28.593Z,6.67
2023-02-11T17:31:35.825Z,6.66
2023-02-11T17:33:39.793Z,6.66
2023-02-11T17:35:47.527Z,6.65
2023-02-11T17:37:53.471Z,6.64
2023-02-11T17:39:59.759Z,6.64
2023-02-11T17:42:07.698Z,6.62
2023-02-11T17:44:12.618Z,6.63
2023-02-11T17:46:16.787Z,6.64
2023-02-11T17:48:23.569Z,6.66
2023-02-11T17:50:29.245Z,6.67
2023-02-11T17:52:34.392Z,6.68
2023-02-11T17:54:39.342Z,6.69
2023-02-11T17:56:45.822Z,6.71
2023-02-11T17:58:52.618Z,6.73
2023-02-11T18:01:03.387Z,6.73
2023-02-11T18:03:11.245Z,6.74
2023-02-11T18:05:16.242Z,6.74
2023-02-11T18:07:21.253Z,6.74
2023-02-11T18:09:28.810Z,6.76
2023-02-11T18:11:34.736Z,6.78
2023-02-11T18:13:43.324Z,6.80
2023-02-11T18:15:52.617Z,6.82
2023-02-11T18:17:59.586Z,6.84
2023-02-11T18:20:07.616Z,6.87
2023-02-11T18:22:18.063Z,6.89
2023-02-11T18:24:27.429Z,6.90
2023-02-11T18:26:36.670Z,6.91
2023-02-11T18:28:45.314Z,6.93
2023-02-11T18:30:57.857Z,6.95
2023-02-11T18:33:02.769Z,6.96
2023-02-11T18:35:22.901Z,6.96
2023-02-11T18:37:27.291Z,6.98
2023-02-11T18:39:32.178Z,6.96
2023-02-11T18:41:37.868Z,6.97
2023-02-11T18:43:50.164Z,6.97
2023-02-11T18:45:58.265Z,6.99
2023-02-11T18:48:08.694Z,6.99
2023-02-11T18:50:20.599Z,7.00
2023-02-11T18:52:26.347Z,7.00
2023-02-11T18:54:31.856Z,6.98
2023-02-11T18:56:40.474Z,6.98
2023-02-11T18:58:47.203Z,6.98
2023-02-11T19:00:51.611Z,6.98
2023-02-11T19:02:58.087Z,6.98
2023-02-11T19:05:10.378Z,6.98
2023-02-11T19:07:14.908Z,6.99
2023-02-11T19:09:23.541Z,7.00
2023-02-11T19:11:31.315Z,7.00
2023-02-11T19:13:37.630Z,7.02
2023-02-11T19:16:04.548Z,7.04
2023-02-11T19:18:11.567Z,7.04
2023-02-11T19:20:18.211Z,7.06
2023-02-11T19:22:26.159Z,7.06
2023-02-11T19:24:32.909Z,7.07
2023-02-11T19:26:39.651Z,7.06
2023-02-11T19:28:49.704Z,7.06
2023-02-11T19:30:54.723Z,7.05
2023-02-11T19:33:01.414Z,7.06
2023-02-11T19:35:05.653Z,7.06
2023-02-11T19:37:17.676Z,7.06
2023-02-11T19:39:24.009Z,7.07
2023-02-11T19:41:28.472Z,7.06
2023-02-11T19:43:33.651Z,7.06
2023-02-11T19:45:39.938Z,7.06
2023-02-11T19:47:45.698Z,7.06
2023-02-11T19:49:49.714Z,7.07
2023-02-11T19:51:56.143Z,7.06
2023-02-11T19:54:00.818Z,7.07
2023-02-11T19:56:10.215Z,7.08
2023-02-11T19:58:16.780Z,7.08
2023-02-11T20:00:28.754Z,7.09
2023-02-11T20:02:33.710Z,7.09
2023-02-11T20:04:40.242Z,7.09
2023-02-11T20:06:47.606Z,7.10
2023-02-11T20:08:58.179Z,7.11
2023-02-11T20:11:08.721Z,7.11
2023-02-11T20:13:15.038Z,7.10
2023-02-11T20:15:22.983Z,7.11
2023-02-11T20:17:29.012Z,7.09
2023-02-11T20:19:33.924Z,7.10
2023-02-11T20:21:40.465Z,7.08
2023-02-11T20:23:45.906Z,7.08
2023-02-11T20:25:50.397Z,7.07
2023-02-11T20:27:58.635Z,7.04
2023-02-11T20:30:04.281Z,7.03
2023-02-11T20:32:09.780Z,7.01
2023-02-11T20:34:14.488Z,6.99
2023-02-11T20:36:23.482Z,6.98
2023-02-11T20:38:29.388Z,7.00
2023-02-11T20:40:39.527Z,6.99
2023-02-11T20:42:44.957Z,6.98
2023-02-11T20:44:50.093Z,6.98
2023-02-11T20:46:54.989Z,6.97
2023-02-11T20:48:59.228Z,6.97
2023-02-11T20:51:11.746Z,6.97
2023-02-11T20:53:16.754Z,6.97
2023-02-11T20:55:20.877Z,6.98
2023-02-11T20:57:30.050Z,6.97
2023-02-11T20:59:33.499Z,6.96
2023-02-11T21:01:49.220Z,6.95
2023-02-11T21:03:55.250Z,6.93
2023-02-11T21:06:04.978Z,6.92
2023-02-11T21:08:13.731Z,6.92
2023-02-11T21:10:18.646Z,6.91
2023-02-11T21:12:24.834Z,6.88
2023-02-11T21:14:30.553Z,6.87
2023-02-11T21:16:37.593Z,6.86
2023-02-11T21:18:42.142Z,6.84
2023-02-11T21:20:45.448Z,6.84
2023-02-11T21:22:53.391Z,6.84
2023-02-11T21:25:01.183Z,6.86
2023-02-11T21:27:09.400Z,6.85
2023-02-11T21:29:14.788Z,6.86
2023-02-11T21:31:22.392Z,6.84
2023-02-11T21:33:31.092Z,6.85
2023-02-11T21:35:39.388Z,6.86
2023-02-11T21:37:42.823Z,6.85
2023-02-11T21:39:47.617Z,6.86
2023-02-11T21:41:51.745Z,6.86
2023-02-11T21:43:58.549Z,6.85
2023-02-11T21:46:08.980Z,6.85
2023-02-11T21:48:16.661Z,6.83
2023-02-11T21:50:23.992Z,6.83
2023-02-11T21:52:27.507Z,6.82
2023-02-11T21:54:32.108Z,6.82
2023-02-11T21:56:39.924Z,6.81
2023-02-11T21:58:43.852Z,6.80
2023-02-11T22:00:47.072Z,6.79
2023-02-11T22:02:51.652Z,6.80
2023-02-11T22:04:56.664Z,6.80
2023-02-11T22:06:59.703Z,6.80
2023-02-11T22:09:05.325Z,6.81
2023-02-11T22:11:11.541Z,6.83
2023-02-11T22:13:15.249Z,6.81
2023-02-11T22:15:18.264Z,6.81
2023-02-11T22:17:21.229Z,6.82
2023-02-11T22:19:23.965Z,6.82
2023-02-11T22:21:27.580Z,6.82
2023-02-11T22:23:34.047Z,6.83
2023-02-11T22:25:37.704Z,6.82
2023-02-11T22:27:40.428Z,6.81
2023-02-11T22:29:43.592Z,6.81
2023-02-11T22:31:46.359Z,6.81
2023-02-11T22:33:49.840Z,6.81
2023-02-11T22:36:01.921Z,6.82
2023-02-11T22:38:04.713Z,6.82
2023-02-11T22:40:11.499Z,6.82
2023-02-11T22:42:17.166Z,6.82
2023-02-11T22:44:19.923Z,6.82
2023-02-11T22:46:22.720Z,6.81
2023-02-11T22:48:26.071Z,6.82
2023-02-11T22:50:29.037Z,6.81
2023-02-11T22:52:33.782Z,6.82
2023-02-11T22:54:39.511Z,6.80
2023-02-11T22:56:42.477Z,6.78
2023-02-11T22:58:45.165Z,6.78
2023-02-11T23:00:50.656Z,6.76
2023-02-11T23:02:53.447Z,6.75
2023-02-11T23:04:56.191Z,6.74
2023-02-11T23:06:58.967Z,6.74
2023-02-11T23:09:04.818Z,6.74
2023-02-11T23:11:09.767Z,6.74
2023-02-11T23:13:12.717Z,6.75
2023-02-11T23:15:15.668Z,6.75
2023-02-11T23:17:18.490Z,6.74
2023-02-11T23:19:21.123Z,6.73
2023-02-11T23:21:26.810Z,6.73
2023-02-11T23:23:29.494Z,6.73
2023-02-11T23:25:33.230Z,6.72
2023-02-11T23:27:35.972Z,6.69
2023-02-11T23:29:38.653Z,6.70
2023-02-11T23:31:42.998Z,6.68
2023-02-11T23:33:46.054Z,6.67
2023-02-11T23:35:51.728Z,6.67
2023-02-11T23:37:54.389Z,6.66
2023-02-11T23:39:57.178Z,6.64
2023-02-11T23:41:59.912Z,6.66
2023-02-11T23:44:02.571Z,6.65
2023-02-11T23:46:05.840Z,6.64
2023-02-11T23:48:08.681Z,6.63
2023-02-11T23:50:12.331Z,6.62
2023-02-11T23:52:15.409Z,6.63
2023-02-11T23:54:19.640Z,6.61
2023-02-11T23:56:24.399Z,6.61
2023-02-11T23:58:27.126Z,6.61
